sensor_id;sensor_type;location;lat;lon;timestamp;temperature;humidity
25983;DHT22;13773;48.868;10.730;2023-08-01T00:02:11;15.70;99.90
25983;DHT22;13773;48.868;10.730;2023-08-01T00:04:37;15.70;99.90
25983;DHT22;13773;48.868;10.730;2023-08-01T00:07:02;15.70;99.90
25983;DHT22;13773;48.868;10.730;2023-08-01T00:09:28;15.80;99.90
25983;DHT22;13773;48.868;10.730;2023-08-01T00:11:54;15.80;99.90
25983;DHT22;13773;48.868;10.730;2023-08-01T00:14:20;15.80;99.90
25983;DHT22;13773;48.868;10.730;2023-08-01T00:16:52;15.80;99.90
25983;DHT22;13773;48.868;10.730;2023-08-01T00:19:18;15.80;99.90
25983;DHT22;13773;48.868;10.730;2023-08-01T00:21:44;15.80;99.90
25983;DHT22;13773;48.868;10.730;2023-08-01T00:24:09;15.80;99.90
25983;DHT22;13773;48.868;10.730;2023-08-01T00:26:35;15.80;99.90
25983;DHT22;13773;48.868;10.730;2023-08-01T00:29:01;15.80;99.90
25983;DHT22;13773;48.868;10.730;2023-08-01T00:31:27;15.80;99.90
25983;DHT22;13773;48.868;10.730;2023-08-01T00:33:52;15.80;99.90
25983;DHT22;13773;48.868;10.730;2023-08-01T00:36:18;15.80;99.90
25983;DHT22;13773;48.868;10.730;2023-08-01T00:38:44;15.80;99.90
25983;DHT22;13773;48.868;10.730;2023-08-01T00:41:10;15.80;99.90
25983;DHT22;13773;48.868;10.730;2023-08-01T00:43:36;15.80;99.90
25983;DHT22;13773;48.868;10.730;2023-08-01T00:46:04;15.90;99.90
25983;DHT22;13773;48.868;10.730;2023-08-01T00:48:31;15.90;99.90
25983;DHT22;13773;48.868;10.730;2023-08-01T00:51:03;15.90;99.90
25983;DHT22;13773;48.868;10.730;2023-08-01T00:53:30;15.90;99.90
25983;DHT22;13773;48.868;10.730;2023-08-01T00:55:56;15.90;99.90
25983;DHT22;13773;48.868;10.730;2023-08-01T00:58:23;15.90;99.90
25983;DHT22;13773;48.868;10.730;2023-08-01T01:00:49;16.00;99.90
25983;DHT22;13773;48.868;10.730;2023-08-01T01:03:15;15.80;99.90
25983;DHT22;13773;48.868;10.730;2023-08-01T01:05:53;15.80;99.90
25983;DHT22;13773;48.868;10.730;2023-08-01T01:08:21;15.90;99.90
25983;DHT22;13773;48.868;10.730;2023-08-01T01:10:47;15.90;99.90
25983;DHT22;13773;48.868;10.730;2023-08-01T01:13:13;16.00;99.90
25983;DHT22;13773;48.868;10.730;2023-08-01T01:15:38;16.00;99.90
25983;DHT22;13773;48.868;10.730;2023-08-01T01:18:04;16.00;99.90
25983;DHT22;13773;48.868;10.730;2023-08-01T01:20:34;16.00;99.90
25983;DHT22;13773;48.868;10.730;2023-08-01T01:23:03;16.00;99.90
25983;DHT22;13773;48.868;10.730;2023-08-01T01:25:30;16.10;99.90
25983;DHT22;13773;48.868;10.730;2023-08-01T01:27:57;16.10;99.90
25983;DHT22;13773;48.868;10.730;2023-08-01T01:30:23;16.10;99.90
25983;DHT22;13773;48.868;10.730;2023-08-01T01:32:50;16.20;99.90
25983;DHT22;13773;48.868;10.730;2023-08-01T01:35:16;16.20;99.90
25983;DHT22;13773;48.868;10.730;2023-08-01T01:37:42;16.30;99.90
25983;DHT22;13773;48.868;10.730;2023-08-01T01:40:08;16.30;99.90
25983;DHT22;13773;48.868;10.730;2023-08-01T01:42:34;16.30;99.90
25983;DHT22;13773;48.868;10.730;2023-08-01T01:44:59;16.40;99.90
25983;DHT22;13773;48.868;10.730;2023-08-01T01:47:25;16.40;99.90
25983;DHT22;13773;48.868;10.730;2023-08-01T01:49:50;16.30;99.90
25983;DHT22;13773;48.868;10.730;2023-08-01T01:52:16;16.40;99.90
25983;DHT22;13773;48.868;10.730;2023-08-01T01:54:42;16.40;99.90
25983;DHT22;13773;48.868;10.730;2023-08-01T01:57:07;16.40;99.90
25983;DHT22;13773;48.868;10.730;2023-08-01T01:59:33;16.40;99.90
25983;DHT22;13773;48.868;10.730;2023-08-01T02:01:59;16.40;99.90
25983;DHT22;13773;48.868;10.730;2023-08-01T02:04:25;16.40;99.90
25983;DHT22;13773;48.868;10.730;2023-08-01T02:06:51;16.40;99.90
25983;DHT22;13773;48.868;10.730;2023-08-01T02:09:18;16.40;99.90
25983;DHT22;13773;48.868;10.730;2023-08-01T02:11:44;16.40;99.90
25983;DHT22;13773;48.868;10.730;2023-08-01T02:14:10;16.40;99.90
25983;DHT22;13773;48.868;10.730;2023-08-01T02:16:35;16.40;99.90
25983;DHT22;13773;48.868;10.730;2023-08-01T02:19:01;16.40;99.90
25983;DHT22;13773;48.868;10.730;2023-08-01T02:21:27;16.40;99.90
25983;DHT22;13773;48.868;10.730;2023-08-01T02:23:52;16.40;99.90
25983;DHT22;13773;48.868;10.730;2023-08-01T02:26:18;16.40;99.90
25983;DHT22;13773;48.868;10.730;2023-08-01T02:28:44;16.30;99.90
25983;DHT22;13773;48.868;10.730;2023-08-01T02:31:10;16.30;99.90
25983;DHT22;13773;48.868;10.730;2023-08-01T02:33:36;16.30;99.90
25983;DHT22;13773;48.868;10.730;2023-08-01T02:36:02;16.20;99.90
25983;DHT22;13773;48.868;10.730;2023-08-01T02:38:27;16.10;99.90
25983;DHT22;13773;48.868;10.730;2023-08-01T02:40:53;16.10;99.90
25983;DHT22;13773;48.868;10.730;2023-08-01T02:43:19;16.10;99.90
25983;DHT22;13773;48.868;10.730;2023-08-01T02:45:45;16.20;99.90
25983;DHT22;13773;48.868;10.730;2023-08-01T02:48:11;16.20;99.90
25983;DHT22;13773;48.868;10.730;2023-08-01T02:50:36;16.20;99.90
25983;DHT22;13773;48.868;10.730;2023-08-01T02:53:04;16.20;99.90
25983;DHT22;13773;48.868;10.730;2023-08-01T02:55:30;16.20;99.90
25983;DHT22;13773;48.868;10.730;2023-08-01T02:57:56;16.10;99.90
25983;DHT22;13773;48.868;10.730;2023-08-01T03:00:22;16.10;99.90
25983;DHT22;13773;48.868;10.730;2023-08-01T03:02:47;16.00;99.90
25983;DHT22;13773;48.868;10.730;2023-08-01T03:05:13;15.90;99.90
25983;DHT22;13773;48.868;10.730;2023-08-01T03:07:38;15.90;99.90
25983;DHT22;13773;48.868;10.730;2023-08-01T03:10:04;15.90;99.90
25983;DHT22;13773;48.868;10.730;2023-08-01T03:12:32;15.90;99.90
25983;DHT22;13773;48.868;10.730;2023-08-01T03:14:58;15.80;99.90
25983;DHT22;13773;48.868;10.730;2023-08-01T03:17:24;15.80;99.90
25983;DHT22;13773;48.868;10.730;2023-08-01T03:19:49;15.80;99.90
25983;DHT22;13773;48.868;10.730;2023-08-01T03:22:15;15.70;99.90
25983;DHT22;13773;48.868;10.730;2023-08-01T03:24:41;15.70;99.90
25983;DHT22;13773;48.868;10.730;2023-08-01T03:27:07;15.70;99.90
25983;DHT22;13773;48.868;10.730;2023-08-01T03:29:32;15.70;99.90
25983;DHT22;13773;48.868;10.730;2023-08-01T03:31:58;15.60;99.90
25983;DHT22;13773;48.868;10.730;2023-08-01T03:34:24;15.60;99.90
25983;DHT22;13773;48.868;10.730;2023-08-01T03:36:49;15.60;99.90
25983;DHT22;13773;48.868;10.730;2023-08-01T03:39:15;15.60;99.90
25983;DHT22;13773;48.868;10.730;2023-08-01T03:41:41;15.60;99.90
25983;DHT22;13773;48.868;10.730;2023-08-01T03:44:06;15.60;99.90
25983;DHT22;13773;48.868;10.730;2023-08-01T03:46:32;15.60;99.90
25983;DHT22;13773;48.868;10.730;2023-08-01T03:48:58;15.60;99.90
25983;DHT22;13773;48.868;10.730;2023-08-01T03:51:23;15.60;99.90
25983;DHT22;13773;48.868;10.730;2023-08-01T03:53:49;15.60;99.90
25983;DHT22;13773;48.868;10.730;2023-08-01T03:56:15;15.60;99.90
25983;DHT22;13773;48.868;10.730;2023-08-01T03:58:41;15.70;99.90
25983;DHT22;13773;48.868;10.730;2023-08-01T04:01:06;15.70;99.90
25983;DHT22;13773;48.868;10.730;2023-08-01T04:03:32;15.70;99.90
25983;DHT22;13773;48.868;10.730;2023-08-01T04:05:58;15.70;99.90
25983;DHT22;13773;48.868;10.730;2023-08-01T04:08:24;15.70;99.90
25983;DHT22;13773;48.868;10.730;2023-08-01T04:10:50;15.70;99.90
25983;DHT22;13773;48.868;10.730;2023-08-01T04:13:16;15.70;99.90
25983;DHT22;13773;48.868;10.730;2023-08-01T04:15:41;15.70;99.90
25983;DHT22;13773;48.868;10.730;2023-08-01T04:18:07;13.00;99.90
25983;DHT22;13773;48.868;10.730;2023-08-01T04:20:33;15.70;99.90
25983;DHT22;13773;48.868;10.730;2023-08-01T04:22:58;15.70;99.90
25983;DHT22;13773;48.868;10.730;2023-08-01T04:25:24;15.70;99.90
25983;DHT22;13773;48.868;10.730;2023-08-01T04:27:52;15.70;99.90
25983;DHT22;13773;48.868;10.730;2023-08-01T04:30:18;15.70;99.90
25983;DHT22;13773;48.868;10.730;2023-08-01T04:32:44;15.80;99.90
25983;DHT22;13773;48.868;10.730;2023-08-01T04:35:09;15.70;99.90
25983;DHT22;13773;48.868;10.730;2023-08-01T04:37:35;15.70;99.90
25983;DHT22;13773;48.868;10.730;2023-08-01T04:40:01;15.80;99.90
25983;DHT22;13773;48.868;10.730;2023-08-01T04:42:27;15.80;99.90
25983;DHT22;13773;48.868;10.730;2023-08-01T04:44:53;15.80;99.90
25983;DHT22;13773;48.868;10.730;2023-08-01T04:47:19;15.80;99.90
25983;DHT22;13773;48.868;10.730;2023-08-01T04:49:44;15.80;99.90
25983;DHT22;13773;48.868;10.730;2023-08-01T04:52:10;15.80;99.90
25983;DHT22;13773;48.868;10.730;2023-08-01T04:54:36;15.80;99.90
25983;DHT22;13773;48.868;10.730;2023-08-01T04:57:01;15.80;99.90
25983;DHT22;13773;48.868;10.730;2023-08-01T04:59:27;15.70;99.90
25983;DHT22;13773;48.868;10.730;2023-08-01T05:01:53;15.80;99.90
25983;DHT22;13773;48.868;10.730;2023-08-01T05:04:18;15.80;99.90
25983;DHT22;13773;48.868;10.730;2023-08-01T05:06:44;15.80;99.90
25983;DHT22;13773;48.868;10.730;2023-08-01T05:09:10;15.80;99.90
25983;DHT22;13773;48.868;10.730;2023-08-01T05:11:35;15.80;99.90
25983;DHT22;13773;48.868;10.730;2023-08-01T05:14:01;15.80;99.90
25983;DHT22;13773;48.868;10.730;2023-08-01T05:16:27;15.80;99.90
25983;DHT22;13773;48.868;10.730;2023-08-01T05:18:52;15.80;99.90
25983;DHT22;13773;48.868;10.730;2023-08-01T05:21:18;15.80;99.90
25983;DHT22;13773;48.868;10.730;2023-08-01T05:23:44;15.90;99.90
25983;DHT22;13773;48.868;10.730;2023-08-01T05:26:09;15.90;99.90
25983;DHT22;13773;48.868;10.730;2023-08-01T05:28:35;15.90;99.90
25983;DHT22;13773;48.868;10.730;2023-08-01T05:31:01;16.00;99.90
25983;DHT22;13773;48.868;10.730;2023-08-01T05:33:26;16.00;99.90
25983;DHT22;13773;48.868;10.730;2023-08-01T05:35:52;16.00;99.90
25983;DHT22;13773;48.868;10.730;2023-08-01T05:38:18;16.00;99.90
25983;DHT22;13773;48.868;10.730;2023-08-01T05:40:43;16.00;99.90
25983;DHT22;13773;48.868;10.730;2023-08-01T05:43:09;16.00;99.90
25983;DHT22;13773;48.868;10.730;2023-08-01T05:45:35;16.10;99.90
25983;DHT22;13773;48.868;10.730;2023-08-01T05:48:01;16.10;99.90
25983;DHT22;13773;48.868;10.730;2023-08-01T05:50:27;16.10;99.90
25983;DHT22;13773;48.868;10.730;2023-08-01T05:52:53;16.20;99.90
25983;DHT22;13773;48.868;10.730;2023-08-01T05:55:18;16.30;99.90
25983;DHT22;13773;48.868;10.730;2023-08-01T05:57:45;16.30;99.90
25983;DHT22;13773;48.868;10.730;2023-08-01T06:00:11;16.40;99.90
25983;DHT22;13773;48.868;10.730;2023-08-01T06:02:37;16.50;99.90
25983;DHT22;13773;48.868;10.730;2023-08-01T06:05:03;16.50;99.90
25983;DHT22;13773;48.868;10.730;2023-08-01T06:07:29;16.50;99.90
25983;DHT22;13773;48.868;10.730;2023-08-01T06:09:56;16.60;99.90
25983;DHT22;13773;48.868;10.730;2023-08-01T06:12:21;16.60;99.90
25983;DHT22;13773;48.868;10.730;2023-08-01T06:14:47;16.70;99.90
25983;DHT22;13773;48.868;10.730;2023-08-01T06:17:13;16.80;99.90
25983;DHT22;13773;48.868;10.730;2023-08-01T06:19:39;16.80;99.90
25983;DHT22;13773;48.868;10.730;2023-08-01T06:22:05;16.90;99.90
25983;DHT22;13773;48.868;10.730;2023-08-01T06:24:31;16.80;99.90
25983;DHT22;13773;48.868;10.730;2023-08-01T06:26:57;16.80;99.90
25983;DHT22;13773;48.868;10.730;2023-08-01T06:29:22;16.90;99.90
25983;DHT22;13773;48.868;10.730;2023-08-01T06:31:50;16.90;99.90
25983;DHT22;13773;48.868;10.730;2023-08-01T06:34:16;16.90;99.90
25983;DHT22;13773;48.868;10.730;2023-08-01T06:36:41;16.90;99.90
25983;DHT22;13773;48.868;10.730;2023-08-01T06:39:07;16.90;99.90
25983;DHT22;13773;48.868;10.730;2023-08-01T06:41:33;17.00;99.90
25983;DHT22;13773;48.868;10.730;2023-08-01T06:43:58;17.00;99.90
25983;DHT22;13773;48.868;10.730;2023-08-01T06:46:24;17.10;99.90
25983;DHT22;13773;48.868;10.730;2023-08-01T06:48:50;17.10;99.90
25983;DHT22;13773;48.868;10.730;2023-08-01T06:51:15;17.20;99.90
25983;DHT22;13773;48.868;10.730;2023-08-01T06:53:41;17.30;99.90
25983;DHT22;13773;48.868;10.730;2023-08-01T06:56:07;17.30;99.90
25983;DHT22;13773;48.868;10.730;2023-08-01T06:58:32;17.40;99.90
25983;DHT22;13773;48.868;10.730;2023-08-01T07:00:58;17.40;99.90
25983;DHT22;13773;48.868;10.730;2023-08-01T07:03:24;17.50;99.90
25983;DHT22;13773;48.868;10.730;2023-08-01T07:05:49;17.50;99.90
25983;DHT22;13773;48.868;10.730;2023-08-01T07:08:15;17.40;99.90
25983;DHT22;13773;48.868;10.730;2023-08-01T07:10:41;17.40;99.90
25983;DHT22;13773;48.868;10.730;2023-08-01T07:13:07;17.40;99.90
25983;DHT22;13773;48.868;10.730;2023-08-01T07:15:33;17.30;99.90
25983;DHT22;13773;48.868;10.730;2023-08-01T07:17:59;17.10;99.90
25983;DHT22;13773;48.868;10.730;2023-08-01T07:20:25;17.00;99.90
25983;DHT22;13773;48.868;10.730;2023-08-01T07:22:50;16.90;99.90
25983;DHT22;13773;48.868;10.730;2023-08-01T07:25:16;16.80;99.90
25983;DHT22;13773;48.868;10.730;2023-08-01T07:27:42;16.80;99.90
25983;DHT22;13773;48.868;10.730;2023-08-01T07:30:08;16.70;99.90
25983;DHT22;13773;48.868;10.730;2023-08-01T07:32:36;16.70;99.90
25983;DHT22;13773;48.868;10.730;2023-08-01T07:35:04;16.70;99.90
25983;DHT22;13773;48.868;10.730;2023-08-01T07:37:29;16.70;99.90
25983;DHT22;13773;48.868;10.730;2023-08-01T07:39:56;16.60;99.90
25983;DHT22;13773;48.868;10.730;2023-08-01T07:42:22;16.60;99.90
25983;DHT22;13773;48.868;10.730;2023-08-01T07:44:48;16.60;99.90
25983;DHT22;13773;48.868;10.730;2023-08-01T07:47:14;16.50;99.90
25983;DHT22;13773;48.868;10.730;2023-08-01T07:49:39;16.50;99.90
25983;DHT22;13773;48.868;10.730;2023-08-01T07:52:05;16.40;99.90
25983;DHT22;13773;48.868;10.730;2023-08-01T07:54:31;16.40;99.90
25983;DHT22;13773;48.868;10.730;2023-08-01T07:56:57;16.30;99.90
25983;DHT22;13773;48.868;10.730;2023-08-01T07:59:22;16.30;99.90
25983;DHT22;13773;48.868;10.730;2023-08-01T08:01:48;16.30;99.90
25983;DHT22;13773;48.868;10.730;2023-08-01T08:04:14;16.30;99.90
25983;DHT22;13773;48.868;10.730;2023-08-01T08:06:40;16.50;99.90
25983;DHT22;13773;48.868;10.730;2023-08-01T08:09:06;16.50;99.90
25983;DHT22;13773;48.868;10.730;2023-08-01T08:11:32;16.50;99.90
25983;DHT22;13773;48.868;10.730;2023-08-01T08:13:59;16.50;99.90
25983;DHT22;13773;48.868;10.730;2023-08-01T08:16:25;18.10;99.90
25983;DHT22;13773;48.868;10.730;2023-08-01T08:18:51;16.30;99.90
25983;DHT22;13773;48.868;10.730;2023-08-01T08:21:17;16.50;99.90
25983;DHT22;13773;48.868;10.730;2023-08-01T08:23:42;16.60;99.90
25983;DHT22;13773;48.868;10.730;2023-08-01T08:26:08;16.60;99.90
25983;DHT22;13773;48.868;10.730;2023-08-01T08:28:34;16.60;99.90
25983;DHT22;13773;48.868;10.730;2023-08-01T08:31:01;16.60;99.90
25983;DHT22;13773;48.868;10.730;2023-08-01T08:33:30;16.60;99.90
25983;DHT22;13773;48.868;10.730;2023-08-01T08:35:56;16.70;99.90
25983;DHT22;13773;48.868;10.730;2023-08-01T08:38:22;16.80;99.90
25983;DHT22;13773;48.868;10.730;2023-08-01T08:40:59;16.70;99.90
25983;DHT22;13773;48.868;10.730;2023-08-01T08:43:27;16.60;99.90
25983;DHT22;13773;48.868;10.730;2023-08-01T08:45:57;16.50;99.90
25983;DHT22;13773;48.868;10.730;2023-08-01T08:48:24;16.50;99.90
25983;DHT22;13773;48.868;10.730;2023-08-01T08:50:51;16.30;99.90
25983;DHT22;13773;48.868;10.730;2023-08-01T08:53:17;16.20;99.90
25983;DHT22;13773;48.868;10.730;2023-08-01T08:55:43;16.10;99.90
25983;DHT22;13773;48.868;10.730;2023-08-01T08:58:09;16.20;99.90
25983;DHT22;13773;48.868;10.730;2023-08-01T09:00:36;16.20;99.90
25983;DHT22;13773;48.868;10.730;2023-08-01T09:03:06;16.30;99.90
25983;DHT22;13773;48.868;10.730;2023-08-01T09:05:35;16.40;99.90
25983;DHT22;13773;48.868;10.730;2023-08-01T09:08:04;16.60;99.90
25983;DHT22;13773;48.868;10.730;2023-08-01T09:10:32;16.50;99.90
25983;DHT22;13773;48.868;10.730;2023-08-01T09:12:58;16.40;99.90
25983;DHT22;13773;48.868;10.730;2023-08-01T09:15:25;16.50;99.90
25983;DHT22;13773;48.868;10.730;2023-08-01T09:17:55;16.50;99.90
25983;DHT22;13773;48.868;10.730;2023-08-01T09:20:28;16.50;99.90
25983;DHT22;13773;48.868;10.730;2023-08-01T09:22:54;16.50;99.90
25983;DHT22;13773;48.868;10.730;2023-08-01T09:25:20;16.50;99.90
25983;DHT22;13773;48.868;10.730;2023-08-01T09:27:55;16.40;99.90
25983;DHT22;13773;48.868;10.730;2023-08-01T09:30:21;16.50;99.90
25983;DHT22;13773;48.868;10.730;2023-08-01T09:32:56;16.50;99.90
25983;DHT22;13773;48.868;10.730;2023-08-01T09:35:23;16.50;99.90
25983;DHT22;13773;48.868;10.730;2023-08-01T09:37:49;16.60;99.90
25983;DHT22;13773;48.868;10.730;2023-08-01T09:40:15;16.70;99.90
25983;DHT22;13773;48.868;10.730;2023-08-01T09:42:44;16.60;99.90
25983;DHT22;13773;48.868;10.730;2023-08-01T09:45:14;16.60;99.90
25983;DHT22;13773;48.868;10.730;2023-08-01T09:47:41;16.40;99.90
25983;DHT22;13773;48.868;10.730;2023-08-01T09:50:12;16.30;99.90
25983;DHT22;13773;48.868;10.730;2023-08-01T09:52:38;16.20;99.90
25983;DHT22;13773;48.868;10.730;2023-08-01T09:55:05;16.10;99.90
25983;DHT22;13773;48.868;10.730;2023-08-01T09:57:31;16.10;99.90
25983;DHT22;13773;48.868;10.730;2023-08-01T09:59:58;16.30;99.90
25983;DHT22;13773;48.868;10.730;2023-08-01T10:02:25;16.60;99.90
25983;DHT22;13773;48.868;10.730;2023-08-01T10:04:57;16.70;99.90
25983;DHT22;13773;48.868;10.730;2023-08-01T10:07:26;16.80;99.90
25983;DHT22;13773;48.868;10.730;2023-08-01T10:09:58;16.80;99.90
25983;DHT22;13773;48.868;10.730;2023-08-01T10:12:26;16.90;99.90
25983;DHT22;13773;48.868;10.730;2023-08-01T10:14:53;16.90;99.90
25983;DHT22;13773;48.868;10.730;2023-08-01T10:17:19;16.90;99.90
25983;DHT22;13773;48.868;10.730;2023-08-01T10:19:47;16.60;99.90
25983;DHT22;13773;48.868;10.730;2023-08-01T10:22:14;16.40;99.90
25983;DHT22;13773;48.868;10.730;2023-08-01T10:24:41;16.40;99.90
25983;DHT22;13773;48.868;10.730;2023-08-01T10:27:14;16.40;99.90
25983;DHT22;13773;48.868;10.730;2023-08-01T10:29:39;16.30;99.90
25983;DHT22;13773;48.868;10.730;2023-08-01T10:32:09;16.20;99.90
25983;DHT22;13773;48.868;10.730;2023-08-01T10:34:35;16.00;99.90
25983;DHT22;13773;48.868;10.730;2023-08-01T10:37:01;15.80;99.90
25983;DHT22;13773;48.868;10.730;2023-08-01T10:39:28;15.70;99.90
25983;DHT22;13773;48.868;10.730;2023-08-01T10:42:02;15.50;99.90
25983;DHT22;13773;48.868;10.730;2023-08-01T10:44:28;15.40;99.90
25983;DHT22;13773;48.868;10.730;2023-08-01T10:47:04;15.40;99.90
25983;DHT22;13773;48.868;10.730;2023-08-01T10:49:37;15.40;99.90
25983;DHT22;13773;48.868;10.730;2023-08-01T10:52:15;15.20;99.90
25983;DHT22;13773;48.868;10.730;2023-08-01T10:54:41;15.10;99.90
25983;DHT22;13773;48.868;10.730;2023-08-01T10:57:07;15.10;99.90
25983;DHT22;13773;48.868;10.730;2023-08-01T10:59:34;15.20;99.90
25983;DHT22;13773;48.868;10.730;2023-08-01T11:02:00;15.40;99.90
25983;DHT22;13773;48.868;10.730;2023-08-01T11:04:27;15.50;99.90
25983;DHT22;13773;48.868;10.730;2023-08-01T11:06:54;15.80;99.90
25983;DHT22;13773;48.868;10.730;2023-08-01T11:09:25;16.00;99.90
25983;DHT22;13773;48.868;10.730;2023-08-01T11:11:56;16.20;99.90
25983;DHT22;13773;48.868;10.730;2023-08-01T11:14:23;16.40;99.90
25983;DHT22;13773;48.868;10.730;2023-08-01T11:16:50;16.30;99.90
25983;DHT22;13773;48.868;10.730;2023-08-01T11:19:29;16.40;99.90
25983;DHT22;13773;48.868;10.730;2023-08-01T11:21:56;16.40;99.90
25983;DHT22;13773;48.868;10.730;2023-08-01T11:24:24;16.40;99.90
25983;DHT22;13773;48.868;10.730;2023-08-01T11:26:51;16.30;99.90
25983;DHT22;13773;48.868;10.730;2023-08-01T11:29:19;16.40;99.90
25983;DHT22;13773;48.868;10.730;2023-08-01T11:31:59;16.40;99.90
25983;DHT22;13773;48.868;10.730;2023-08-01T11:34:25;16.60;99.90
25983;DHT22;13773;48.868;10.730;2023-08-01T11:36:51;16.80;99.90
25983;DHT22;13773;48.868;10.730;2023-08-01T11:39:18;16.90;99.90
25983;DHT22;13773;48.868;10.730;2023-08-01T11:41:44;17.10;99.90
25983;DHT22;13773;48.868;10.730;2023-08-01T11:44:10;17.10;99.90
25983;DHT22;13773;48.868;10.730;2023-08-01T11:46:37;17.20;99.90
25983;DHT22;13773;48.868;10.730;2023-08-01T11:49:07;17.30;99.90
25983;DHT22;13773;48.868;10.730;2023-08-01T11:51:40;17.40;99.90
25983;DHT22;13773;48.868;10.730;2023-08-01T11:54:06;17.50;99.90
25983;DHT22;13773;48.868;10.730;2023-08-01T11:56:33;17.70;99.90
25983;DHT22;13773;48.868;10.730;2023-08-01T11:58:59;17.80;99.90
25983;DHT22;13773;48.868;10.730;2023-08-01T12:01:25;18.00;99.90
25983;DHT22;13773;48.868;10.730;2023-08-01T12:03:53;18.00;99.90
25983;DHT22;13773;48.868;10.730;2023-08-01T12:06:20;18.20;99.90
25983;DHT22;13773;48.868;10.730;2023-08-01T12:08:49;18.20;99.90
25983;DHT22;13773;48.868;10.730;2023-08-01T12:13:45;18.20;99.90
25983;DHT22;13773;48.868;10.730;2023-08-01T12:16:11;18.60;99.90
25983;DHT22;13773;48.868;10.730;2023-08-01T12:18:39;19.00;99.90
25983;DHT22;13773;48.868;10.730;2023-08-01T12:21:05;22.00;99.90
25983;DHT22;13773;48.868;10.730;2023-08-01T12:23:31;18.30;99.90
25983;DHT22;13773;48.868;10.730;2023-08-01T12:25:57;19.70;99.90
25983;DHT22;13773;48.868;10.730;2023-08-01T12:28:22;19.90;99.90
25983;DHT22;13773;48.868;10.730;2023-08-01T12:30:48;19.60;99.90
25983;DHT22;13773;48.868;10.730;2023-08-01T12:33:14;19.20;99.90
25983;DHT22;13773;48.868;10.730;2023-08-01T12:35:41;19.00;99.90
25983;DHT22;13773;48.868;10.730;2023-08-01T12:38:08;18.90;99.90
25983;DHT22;13773;48.868;10.730;2023-08-01T12:40:33;18.50;99.90
25983;DHT22;13773;48.868;10.730;2023-08-01T12:42:59;18.00;99.90
25983;DHT22;13773;48.868;10.730;2023-08-01T12:45:25;17.70;99.90
25983;DHT22;13773;48.868;10.730;2023-08-01T12:47:51;17.40;99.90
25983;DHT22;13773;48.868;10.730;2023-08-01T12:50:16;17.20;99.90
25983;DHT22;13773;48.868;10.730;2023-08-01T12:52:42;17.30;99.90
25983;DHT22;13773;48.868;10.730;2023-08-01T12:55:08;17.70;99.90
25983;DHT22;13773;48.868;10.730;2023-08-01T12:57:34;18.00;99.90
25983;DHT22;13773;48.868;10.730;2023-08-01T13:00:00;18.00;99.90
25983;DHT22;13773;48.868;10.730;2023-08-01T13:02:27;18.10;99.90
25983;DHT22;13773;48.868;10.730;2023-08-01T13:04:52;18.40;99.90
25983;DHT22;13773;48.868;10.730;2023-08-01T13:07:18;18.50;99.90
25983;DHT22;13773;48.868;10.730;2023-08-01T13:09:44;18.60;99.90
25983;DHT22;13773;48.868;10.730;2023-08-01T13:12:10;18.60;99.90
25983;DHT22;13773;48.868;10.730;2023-08-01T13:14:35;18.80;99.90
25983;DHT22;13773;48.868;10.730;2023-08-01T13:17:02;18.90;99.90
25983;DHT22;13773;48.868;10.730;2023-08-01T13:19:27;18.80;99.90
25983;DHT22;13773;48.868;10.730;2023-08-01T13:21:53;19.10;99.90
25983;DHT22;13773;48.868;10.730;2023-08-01T13:24:19;19.00;99.90
25983;DHT22;13773;48.868;10.730;2023-08-01T13:26:44;19.00;99.90
25983;DHT22;13773;48.868;10.730;2023-08-01T13:29:10;18.90;99.90
25983;DHT22;13773;48.868;10.730;2023-08-01T13:31:36;19.00;99.90
25983;DHT22;13773;48.868;10.730;2023-08-01T13:34:02;19.10;99.90
25983;DHT22;13773;48.868;10.730;2023-08-01T13:36:27;19.20;99.90
25983;DHT22;13773;48.868;10.730;2023-08-01T13:38:53;19.40;99.90
25983;DHT22;13773;48.868;10.730;2023-08-01T13:41:19;19.40;99.90
25983;DHT22;13773;48.868;10.730;2023-08-01T13:43:44;19.40;99.90
25983;DHT22;13773;48.868;10.730;2023-08-01T13:46:15;19.50;99.90
25983;DHT22;13773;48.868;10.730;2023-08-01T13:48:42;19.80;99.90
25983;DHT22;13773;48.868;10.730;2023-08-01T13:51:08;19.70;99.90
25983;DHT22;13773;48.868;10.730;2023-08-01T13:53:34;19.90;99.90
25983;DHT22;13773;48.868;10.730;2023-08-01T13:56:00;20.00;99.90
25983;DHT22;13773;48.868;10.730;2023-08-01T13:58:25;20.00;99.90
25983;DHT22;13773;48.868;10.730;2023-08-01T14:00:51;20.10;99.90
25983;DHT22;13773;48.868;10.730;2023-08-01T14:03:17;20.10;99.90
25983;DHT22;13773;48.868;10.730;2023-08-01T14:05:42;20.30;99.90
25983;DHT22;13773;48.868;10.730;2023-08-01T14:08:08;20.30;99.90
25983;DHT22;13773;48.868;10.730;2023-08-01T14:10:33;20.30;99.90
25983;DHT22;13773;48.868;10.730;2023-08-01T14:12:59;20.50;99.90
25983;DHT22;13773;48.868;10.730;2023-08-01T14:15:25;20.40;99.90
25983;DHT22;13773;48.868;10.730;2023-08-01T14:17:51;20.40;99.90
25983;DHT22;13773;48.868;10.730;2023-08-01T14:20:18;20.60;99.90
25983;DHT22;13773;48.868;10.730;2023-08-01T14:22:44;20.50;99.90
25983;DHT22;13773;48.868;10.730;2023-08-01T14:25:10;20.50;99.90
25983;DHT22;13773;48.868;10.730;2023-08-01T14:27:36;20.50;99.90
25983;DHT22;13773;48.868;10.730;2023-08-01T14:30:02;20.40;99.90
25983;DHT22;13773;48.868;10.730;2023-08-01T14:32:28;20.50;99.90
25983;DHT22;13773;48.868;10.730;2023-08-01T14:34:54;20.60;99.90
25983;DHT22;13773;48.868;10.730;2023-08-01T14:37:20;21.10;99.90
25983;DHT22;13773;48.868;10.730;2023-08-01T14:39:49;21.20;99.90
25983;DHT22;13773;48.868;10.730;2023-08-01T14:42:16;21.00;99.90
25983;DHT22;13773;48.868;10.730;2023-08-01T14:44:41;20.70;99.90
25983;DHT22;13773;48.868;10.730;2023-08-01T14:47:07;20.60;99.90
25983;DHT22;13773;48.868;10.730;2023-08-01T14:49:33;20.70;99.90
25983;DHT22;13773;48.868;10.730;2023-08-01T14:51:59;20.60;99.90
25983;DHT22;13773;48.868;10.730;2023-08-01T14:54:24;20.60;99.90
25983;DHT22;13773;48.868;10.730;2023-08-01T14:56:51;20.60;99.90
25983;DHT22;13773;48.868;10.730;2023-08-01T14:59:17;20.70;99.90
25983;DHT22;13773;48.868;10.730;2023-08-01T15:01:43;20.60;99.90
25983;DHT22;13773;48.868;10.730;2023-08-01T15:04:08;20.70;99.90
25983;DHT22;13773;48.868;10.730;2023-08-01T15:06:34;20.70;99.90
25983;DHT22;13773;48.868;10.730;2023-08-01T15:09:00;20.90;99.90
25983;DHT22;13773;48.868;10.730;2023-08-01T15:11:25;21.10;99.90
25983;DHT22;13773;48.868;10.730;2023-08-01T15:13:51;21.10;99.90